M I D A S
Marine Information and Data Acquisition System
Tripno 1870 of the Zeeleeuw from 2010-04-28 06:30:26 to 2010-04-28 15:18:35
Back to CruiseResearch ActivitiesStationsMapUnderway DataData graphs

EquipmentUnitsComment
TimeDGPSUTC
LatitudeDGPSDM.mWGS84
LongitudeDGPSDM.mWGS84
HeadingGyrodeg 
SOGDGPSknotsSpeed over ground
COGDGPSdegCourse over ground
DepthEcho soundermeters200 kHz
Missing or incorrect values are displayed as -999
Navigation data collected by the RV Zeeleeuw from 2010-04-28 06:55:22 to 2010-04-28 15:37:59
                                                                                    Next 1000 lines
Time Latitude Longitude Heading SOG COG Depth
2010-04-28 06:55:31 51°13.661 2°55.956 110.1 1.4 295 4.6
2010-04-28 06:55:37 51°13.662 2°55.951 110.1 1.9 291 4.7
2010-04-28 06:55:42 51°13.664 2°55.946 110 2.3 293 4.7
2010-04-28 06:55:47 51°13.665 2°55.941 109.8 2.7 292 4.8
2010-04-28 06:55:52 51°13.667 2°55.935 109.9 3 293 -999
2010-04-28 06:55:57 51°13.668 2°55.928 110.2 3.3 293 -999
2010-04-28 06:56:03 51°13.671 2°55.919 110.4 3.5 294 -999
2010-04-28 06:56:07 51°13.672 2°55.913 110.1 3.6 292 -999
2010-04-28 06:56:12 51°13.674 2°55.905 109.7 3.8 292 -999
2010-04-28 06:56:17 51°13.676 2°55.897 109.2 3.9 291 -999
2010-04-28 06:56:23 51°13.678 2°55.887 108.6 3.9 289 -999
2010-04-28 06:56:27 51°13.68 2°55.881 107.4 3.9 288 -999
2010-04-28 06:56:32 51°13.682 2°55.872 106 3.9 286 -999
2010-04-28 06:56:38 51°13.683 2°55.862 104.3 4 286 -999
2010-04-28 06:56:42 51°13.684 2°55.856 102.7 4 284 -999
2010-04-28 06:56:47 51°13.686 2°55.847 101.3 4 283 -999
2010-04-28 06:56:52 51°13.687 2°55.838 99.8 3.9 282 -999
2010-04-28 06:56:57 51°13.688 2°55.83 98.4 3.8 281 -999
2010-04-28 06:57:02 51°13.689 2°55.822 96.9 3.7 280 -999
2010-04-28 06:57:07 51°13.69 2°55.814 95.4 3.6 280 -999
2010-04-28 06:57:12 51°13.691 2°55.806 93.9 3.5 278 -999
2010-04-28 06:57:17 51°13.691 2°55.799 92.7 3.4 277 9.3
2010-04-28 06:57:22 51°13.692 2°55.792 91.5 3.3 276 4.9
2010-04-28 06:57:27 51°13.692 2°55.785 90.2 3.2 277 4.8
2010-04-28 06:57:32 51°13.692 2°55.779 88.7 2.9 275 -999
2010-04-28 06:57:37 51°13.692 2°55.774 86.9 2.4 274 -999
2010-04-28 06:57:43 51°13.693 2°55.769 84.3 1.8 278 -999
2010-04-28 06:57:47 51°13.693 2°55.767 81.4 1.1 286 -999
2010-04-28 06:57:52 51°13.694 2°55.766 76 0.7 291 -999
2010-04-28 06:57:57 51°13.695 2°55.764 70.4 0.6 305 -999
2010-04-28 06:58:03 51°13.695 2°55.763 65.7 0.5 293 -999
2010-04-28 06:58:07 51°13.696 2°55.762 61.8 0.6 298 -999
2010-04-28 06:58:12 51°13.695 2°55.761 58.9 0.6 279 -999
2010-04-28 06:58:17 51°13.695 2°55.759 56.3 0.8 274 -999
2010-04-28 06:58:23 51°13.694 2°55.758 53.8 0.8 260 -999
2010-04-28 06:58:27 51°13.694 2°55.756 51.6 1 258 -999
2010-04-28 06:58:32 51°13.693 2°55.754 49.4 1 254 -999
2010-04-28 06:58:37 51°13.692 2°55.751 47.6 0.9 255 -999
2010-04-28 06:58:43 51°13.692 2°55.749 45.8 0.8 258 -999
2010-04-28 06:58:47 51°13.692 2°55.748 44.4 0.6 281 -999
2010-04-28 06:58:52 51°13.693 2°55.748 42.4 0.4 339 -999
2010-04-28 06:58:58 51°13.694 2°55.748 38.5 0.6 351 -999
2010-04-28 06:59:02 51°13.695 2°55.748 33.4 0.8 357 -999
2010-04-28 06:59:07 51°13.696 2°55.748 28.6 1 6 -999
2010-04-28 06:59:12 51°13.698 2°55.748 23.6 1.1 2 -999
2010-04-28 06:59:18 51°13.7 2°55.748 18.5 1.3 -999 -999
2010-04-28 06:59:22 51°13.702 2°55.748 13.6 1.6 359 -999
2010-04-28 06:59:27 51°13.705 2°55.747 7.5 1.8 352 -999
2010-04-28 06:59:32 51°13.708 2°55.746 0.9 2 349 -999
2010-04-28 06:59:38 51°13.712 2°55.744 354.1 2.3 343 -999
2010-04-28 06:59:43 51°13.715 2°55.741 347.2 2.7 337 -999
2010-04-28 06:59:47 51°13.718 2°55.739 341.2 2.9 335 4.5
2010-04-28 06:59:53 51°13.723 2°55.734 337.4 3.3 329 -999
2010-04-28 06:59:58 51°13.727 2°55.73 333.8 3.6 327 -999
2010-04-28 07:00:03 51°13.732 2°55.725 331.6 3.8 323 -999
2010-04-28 07:00:07 51°13.735 2°55.721 330 3.9 324 -999
2010-04-28 07:00:12 51°13.74 2°55.715 328.9 4.3 323 -999
2010-04-28 07:00:18 51°13.747 2°55.708 328.8 4.6 327 -999
2010-04-28 07:00:23 51°13.753 2°55.702 329.8 5.1 326 -999
2010-04-28 07:00:27 51°13.758 2°55.698 331.9 5.4 331 -999
2010-04-28 07:00:32 51°13.765 2°55.692 333.4 5.8 331 -999
2010-04-28 07:00:37 51°13.773 2°55.685 333.6 6 331 -999
2010-04-28 07:00:43 51°13.782 2°55.677 333.5 6.3 333 9.9
2010-04-28 07:00:47 51°13.789 2°55.672 333.8 6.6 333 -999
2010-04-28 07:00:52 51°13.797 2°55.665 334.1 6.9 334 -999
2010-04-28 07:00:57 51°13.806 2°55.659 334.4 7.1 334 -999
2010-04-28 07:01:02 51°13.815 2°55.652 334.7 7.3 335 -999
2010-04-28 07:01:07 51°13.825 2°55.644 335.1 7.6 335 -999
2010-04-28 07:01:12 51°13.835 2°55.637 335.5 7.8 336 9.7
2010-04-28 07:01:17 51°13.845 2°55.63 335.8 7.9 335 -999
2010-04-28 07:01:22 51°13.856 2°55.623 336.9 8.2 338 -999
2010-04-28 07:01:27 51°13.866 2°55.616 337.9 8.3 336 -999
2010-04-28 07:01:32 51°13.877 2°55.608 337.9 8.5 337 -999
2010-04-28 07:01:38 51°13.89 2°55.599 338.2 8.6 337 9.9
2010-04-28 07:01:42 51°13.899 2°55.592 337.9 8.9 336 9.8
2010-04-28 07:01:47 51°13.91 2°55.584 337.6 8.9 336 9.7
2010-04-28 07:01:52 51°13.922 2°55.576 337.6 9 337 -999
2010-04-28 07:01:58 51°13.935 2°55.567 337.7 9.1 335 -999
2010-04-28 07:02:03 51°13.947 2°55.559 337.7 9.1 337 -999
2010-04-28 07:02:07 51°13.956 2°55.552 337.5 9.3 335 9.7
2010-04-28 07:02:12 51°13.969 2°55.543 337.4 9.5 336 -999
2010-04-28 07:02:17 51°13.981 2°55.534 337.3 9.6 335 9.8
2010-04-28 07:02:22 51°13.993 2°55.526 336.9 9.7 335 9.6
2010-04-28 07:02:27 51°14.006 2°55.517 336.6 9.9 335 9.5
2010-04-28 07:02:32 51°14.018 2°55.508 336.6 10 335 9.5
2010-04-28 07:02:37 51°14.031 2°55.498 336.8 10.1 336 9.5
2010-04-28 07:02:42 51°14.044 2°55.489 337.1 10.4 336 9.4
2010-04-28 07:02:47 51°14.058 2°55.479 337.6 10.5 336 -999
2010-04-28 07:02:52 51°14.071 2°55.469 337.6 10.6 336 -999
2010-04-28 07:02:57 51°14.085 2°55.459 337.6 10.7 335 9.5
2010-04-28 07:03:03 51°14.1 2°55.447 336.8 10.7 334 -999
2010-04-28 07:03:07 51°14.111 2°55.438 336.4 10.8 334 -999
2010-04-28 07:03:12 51°14.124 2°55.428 336.2 10.8 333 5
2010-04-28 07:03:17 51°14.138 2°55.417 335.7 10.8 333 -999
2010-04-28 07:03:22 51°14.151 2°55.406 334.8 10.8 331 9.5
2010-04-28 07:03:27 51°14.164 2°55.394 334 10.8 332 9.5
2010-04-28 07:03:32 51°14.177 2°55.382 333.4 10.8 330 -999
2010-04-28 07:03:37 51°14.19 2°55.371 332.3 10.7 331 9.4
2010-04-28 07:03:42 51°14.203 2°55.359 332.1 10.7 330 9.4
2010-04-28 07:03:47 51°14.216 2°55.347 331.9 10.6 330 9.5
2010-04-28 07:03:52 51°14.229 2°55.335 331.5 10.7 329 9.5
2010-04-28 07:03:57 51°14.241 2°55.322 330.5 10.7 329 9.1
2010-04-28 07:04:02 51°14.254 2°55.31 330.2 10.7 328 9.2
2010-04-28 07:04:07 51°14.266 2°55.298 330 10.5 328 9
2010-04-28 07:04:11 51°14.277 2°55.288 329.8 10.5 328 9.2
2010-04-28 07:04:16 51°14.289 2°55.276 329.8 10.6 328 9.1
2010-04-28 07:04:21 51°14.302 2°55.263 329.9 10.7 328 9.2
2010-04-28 07:04:26 51°14.314 2°55.251 330.2 10.7 328 9.4
2010-04-28 07:04:31 51°14.326 2°55.238 330 10.7 327 9.2
2010-04-28 07:04:36 51°14.339 2°55.226 329.6 10.7 328 -999
2010-04-28 07:04:41 51°14.352 2°55.213 329.6 10.7 328 9.2
2010-04-28 07:04:46 51°14.365 2°55.201 330.2 10.8 330 8.8
2010-04-28 07:04:51 51°14.378 2°55.188 330.5 11 328 9.3
2010-04-28 07:04:55 51°14.388 2°55.178 329.8 11.1 328 8.9
2010-04-28 07:05:00 51°14.401 2°55.165 329.8 11.2 328 8.9
2010-04-28 07:05:05 51°14.415 2°55.151 329.2 11.3 327 9.3
2010-04-28 07:05:10 51°14.428 2°55.137 328.7 11.4 328 9.2
2010-04-28 07:05:15 51°14.441 2°55.123 328.7 11.5 327 9.3
2010-04-28 07:05:19 51°14.452 2°55.113 329.1 11.6 328 9.2
2010-04-28 07:05:24 51°14.466 2°55.099 329.6 11.7 328 9.2
2010-04-28 07:05:29 51°14.48 2°55.084 328.8 11.8 326 8.9
2010-04-28 07:05:34 51°14.493 2°55.07 327.6 11.8 326 9.1
2010-04-28 07:05:39 51°14.506 2°55.055 326.7 11.9 325 9.5
2010-04-28 07:05:44 51°14.52 2°55.039 326.5 11.8 325 9.3
2010-04-28 07:05:49 51°14.532 2°55.023 326.1 11.6 321 9.4
2010-04-28 07:05:54 51°14.544 2°55.005 324.7 11.7 318 10.2
2010-04-28 07:05:59 51°14.556 2°54.988 324.4 11.7 318 10.2
2010-04-28 07:06:03 51°14.566 2°54.975 325.2 11.6 320 10.2
2010-04-28 07:06:09 51°14.58 2°54.956 327.6 11.5 323 10.2
2010-04-28 07:06:14 51°14.592 2°54.941 330.2 11.4 324 10.1
2010-04-28 07:06:19 51°14.605 2°54.928 333 11.3 326 9.9
2010-04-28 07:06:23 51°14.615 2°54.917 334.5 11.3 326 10
2010-04-28 07:06:29 51°14.631 2°54.9 334.4 11.5 326 10
2010-04-28 07:06:34 51°14.644 2°54.885 334.4 11.6 326 9.9
2010-04-28 07:06:39 51°14.658 2°54.871 334.4 11.8 327 10.2
2010-04-28 07:06:43 51°14.669 2°54.859 334.4 11.9 327 10.4
2010-04-28 07:06:49 51°14.686 2°54.842 334.7 11.9 327 10.3
2010-04-28 07:06:54 51°14.7 2°54.827 334.9 12.2 326 10.1
2010-04-28 07:06:59 51°14.714 2°54.812 334.1 12.3 325 10.7
2010-04-28 07:07:04 51°14.729 2°54.797 334 12.4 327 10.5
2010-04-28 07:07:09 51°14.743 2°54.782 334 12.5 326 10.5
2010-04-28 07:07:14 51°14.758 2°54.767 334.3 12.5 326 10.5
2010-04-28 07:07:19 51°14.772 2°54.751 333.5 12.6 326 10.4
2010-04-28 07:07:24 51°14.787 2°54.735 332.3 12.7 325 10.4
2010-04-28 07:07:29 51°14.802 2°54.719 332.8 12.7 327 10.4
2010-04-28 07:07:34 51°14.816 2°54.703 332.8 12.8 325 10.1
2010-04-28 07:07:39 51°14.832 2°54.687 332.7 12.9 326 10.3
2010-04-28 07:07:44 51°14.847 2°54.671 332.7 13 326 10.1
2010-04-28 07:07:49 51°14.862 2°54.656 333.1 13 328 10.4
2010-04-28 07:07:54 51°14.877 2°54.641 333.5 13 327 10.4
2010-04-28 07:07:59 51°14.893 2°54.626 333.7 13.1 328 10.6
2010-04-28 07:08:04 51°14.908 2°54.61 333.8 13.1 328 10.7
2010-04-28 07:08:09 51°14.923 2°54.594 334.1 13.1 328 10.5
2010-04-28 07:08:14 51°14.939 2°54.579 334.6 13 329 8.3
2010-04-28 07:08:19 51°14.954 2°54.564 335 12.9 328 8.3
2010-04-28 07:08:23 51°14.966 2°54.552 334.3 12.7 327 8.3
2010-04-28 07:08:29 51°14.983 2°54.534 334.1 12.6 327 8.2
2010-04-28 07:08:34 51°14.998 2°54.519 334.3 12.5 328 8.2
2010-04-28 07:08:39 51°15.012 2°54.503 334.3 12.5 327 8.2
2010-04-28 07:08:43 51°15.024 2°54.494 337 12.3 334 8.2
2010-04-28 07:08:48 51°15.04 2°54.481 339.2 12.4 334 7.9
2010-04-28 07:08:54 51°15.06 2°54.469 341.8 12.5 339 7.8
2010-04-28 07:08:59 51°15.076 2°54.459 344.1 12.4 339 7.8
2010-04-28 07:09:03 51°15.089 2°54.453 346.9 12.2 343 7.7
2010-04-28 07:09:07 51°15.102 2°54.447 348.9 12.1 344 7.2
2010-04-28 07:09:14 51°15.125 2°54.438 351.1 12.1 345 5.3
2010-04-28 07:09:19 51°15.141 2°54.431 352.2 11.9 346 6.9
2010-04-28 07:09:23 51°15.154 2°54.426 353.3 11.8 347 6.9
2010-04-28 07:09:28 51°15.17 2°54.423 357.2 11.6 354 6.9
2010-04-28 07:09:33 51°15.185 2°54.42 359.4 11.6 353 7.1
2010-04-28 07:09:39 51°15.205 2°54.419 2.2 11.5 359 7
2010-04-28 07:09:43 51°15.218 2°54.418 4.5 11.6 359 7
2010-04-28 07:09:48 51°15.233 2°54.42 6.9 11.4 3 5.3
2010-04-28 07:09:54 51°15.252 2°54.422 9.6 11.3 5 5.4
2010-04-28 07:09:58 51°15.265 2°54.426 12.7 11.3 9 7.1
2010-04-28 07:10:03 51°15.28 2°54.431 15.8 11.3 12 7.2
2010-04-28 07:10:09 51°15.298 2°54.439 18.6 11.3 15 7.2
2010-04-28 07:10:14 51°15.313 2°54.447 21.3 11.2 19 7.3
2010-04-28 07:10:19 51°15.327 2°54.456 24.5 11.3 22 7.3
2010-04-28 07:10:23 51°15.338 2°54.464 27.6 11.3 25 5.5
2010-04-28 07:10:29 51°15.355 2°54.476 28.8 11.3 23 5.5
2010-04-28 07:10:34 51°15.369 2°54.487 29.1 11.1 26 7.4
2010-04-28 07:10:39 51°15.383 2°54.497 30.1 11.2 25 7.4
2010-04-28 07:10:43 51°15.394 2°54.507 30.8 11.1 29 7.4
2010-04-28 07:10:49 51°15.41 2°54.523 33.3 11.2 33 7.4
2010-04-28 07:10:54 51°15.423 2°54.537 36.1 11.2 36 7.5
2010-04-28 07:10:59 51°15.435 2°54.554 39.9 11.2 41 7.5
2010-04-28 07:11:03 51°15.445 2°54.567 42.2 11.2 41 7.6
2010-04-28 07:11:08 51°15.455 2°54.585 45.8 11.1 48 7.5
2010-04-28 07:11:14 51°15.468 2°54.606 48.1 11.1 47 7.5
2010-04-28 07:11:19 51°15.477 2°54.626 50.1 11.2 52 7.6
2010-04-28 07:11:23 51°15.485 2°54.641 52.1 11.1 52 7.6
2010-04-28 07:11:28 51°15.494 2°54.661 53.5 11.1 53 7.6
2010-04-28 07:11:34 51°15.505 2°54.685 54 11.1 54 5.6
2010-04-28 07:11:39 51°15.514 2°54.705 55.2 11.2 54 5.6
2010-04-28 07:11:43 51°15.522 2°54.721 54.8 11.3 54 7.6
2010-04-28 07:11:47 51°15.528 2°54.738 55.2 11.3 56 7.6
2010-04-28 07:11:54 51°15.54 2°54.767 56.9 11.2 58 7.5
2010-04-28 07:11:59 51°15.548 2°54.788 58.5 11.2 60 7.6
2010-04-28 07:12:03 51°15.554 2°54.805 59.5 11.2 60 7.6
2010-04-28 07:12:08 51°15.561 2°54.827 60.5 11.2 62 7.6
2010-04-28 07:12:14 51°15.57 2°54.854 60.9 11.2 62 5.7
2010-04-28 07:12:19 51°15.578 2°54.875 61.6 11.2 61 7.6
2010-04-28 07:12:23 51°15.584 2°54.893 61.6 11.2 61 7.6
2010-04-28 07:12:28 51°15.592 2°54.913 60 11.2 58 7.6
2010-04-28 07:12:34 51°15.601 2°54.939 59.3 11.2 59 7.7
2010-04-28 07:12:38 51°15.609 2°54.955 58 11.2 54 7.6
2010-04-28 07:12:43 51°15.617 2°54.976 56.7 11.3 57 7.6
2010-04-28 07:12:49 51°15.629 2°54.999 55.7 11.2 52 7.6
2010-04-28 07:12:54 51°15.637 2°55.019 55.1 11.1 55 7.6
2010-04-28 07:12:59 51°15.647 2°55.039 54.4 11.2 52 5.6
2010-04-28 07:13:03 51°15.655 2°55.055 53.7 11.3 54 7.7
2010-04-28 07:13:08 51°15.664 2°55.074 53.8 11.2 52 7.7
2010-04-28 07:13:14 51°15.675 2°55.098 53.5 11.2 53 7.6
2010-04-28 07:13:19 51°15.685 2°55.118 53.5 11.3 53 7.6
2010-04-28 07:13:23 51°15.692 2°55.134 54.6 11.3 55 7.7
2010-04-28 07:13:28 51°15.701 2°55.155 54.8 11.3 55 7.7
2010-04-28 07:13:34 51°15.711 2°55.181 57.1 11.4 59 -999
2010-04-28 07:13:39 51°15.719 2°55.202 57.6 11.3 57 7.8
2010-04-28 07:13:43 51°15.725 2°55.219 58.8 11.4 61 7.6
2010-04-28 07:13:48 51°15.734 2°55.241 59.4 11.4 59 7.7
2010-04-28 07:13:54 51°15.742 2°55.267 60.3 11.3 62 7.8
2010-04-28 07:13:59 51°15.75 2°55.289 60.9 11.3 60 7.7
2010-04-28 07:14:03 51°15.756 2°55.306 60.6 11.3 60 7.8
2010-04-28 07:14:08 51°15.764 2°55.328 60.3 11.4 60 7.7
2010-04-28 07:14:13 51°15.773 2°55.35 59.8 11.4 59 7.7
2010-04-28 07:14:19 51°15.782 2°55.376 59.1 11.4 59 7.8
2010-04-28 07:14:23 51°15.789 2°55.393 58.8 11.3 58 5.7
2010-04-28 07:14:29 51°15.799 2°55.418 58.5 11.3 59 7.7
2010-04-28 07:14:34 51°15.807 2°55.44 58.6 11.3 59 5.7
2010-04-28 07:14:38 51°15.813 2°55.457 59.2 11.4 59 5.7
2010-04-28 07:14:43 51°15.821 2°55.479 59.7 11.4 61 7.7
2010-04-28 07:14:48 51°15.828 2°55.501 60.6 11.3 61 7.7
2010-04-28 07:14:54 51°15.838 2°55.527 60.8 11.3 61 7.7
2010-04-28 07:14:59 51°15.845 2°55.55 60.9 11.4 61 7.7
2010-04-28 07:15:03 51°15.852 2°55.567 61 11.4 61 7.7
2010-04-28 07:15:08 51°15.859 2°55.589 61 11.3 61 7.7
2010-04-28 07:15:14 51°15.868 2°55.616 61 11.5 61 7.8
2010-04-28 07:15:19 51°15.876 2°55.638 60.9 11.5 61 7.8
2010-04-28 07:15:23 51°15.882 2°55.655 60.5 11.4 60 7.8
2010-04-28 07:15:28 51°15.89 2°55.677 60.3 11.4 60 7.8
2010-04-28 07:15:34 51°15.9 2°55.703 59.7 11.4 59 7.7
2010-04-28 07:15:39 51°15.908 2°55.725 59.4 11.4 59 5.7
2010-04-28 07:15:43 51°15.915 2°55.742 58.9 11.4 58 7.7
2010-04-28 07:15:47 51°15.921 2°55.759 58.7 11.4 58 7.8
2010-04-28 07:15:54 51°15.933 2°55.789 58.7 11.4 59 7.8
2010-04-28 07:15:59 51°15.941 2°55.811 58.9 11.5 60 7.8
2010-04-28 07:16:03 51°15.948 2°55.829 59.6 11.5 60 7.8
2010-04-28 07:16:08 51°15.955 2°55.851 60.2 11.5 61 7.9
2010-04-28 07:16:13 51°15.963 2°55.873 60.5 11.4 61 7.8
2010-04-28 07:16:19 51°15.972 2°55.9 60.9 11.5 61 7.8
2010-04-28 07:16:23 51°15.979 2°55.918 61 11.6 60 7.8
2010-04-28 07:16:28 51°15.987 2°55.941 60.4 11.6 61 7.8
2010-04-28 07:16:34 51°15.996 2°55.968 60.8 11.7 61 7.8
2010-04-28 07:16:39 51°16.004 2°55.99 60.3 11.6 60 7.8
2010-04-28 07:16:43 51°16.011 2°56.008 60.2 11.8 60 7.9
2010-04-28 07:16:48 51°16.019 2°56.03 60 11.7 60 7.8
2010-04-28 07:16:53 51°16.027 2°56.053 60.1 11.8 60 7.8
2010-04-28 07:16:59 51°16.036 2°56.08 60.3 11.8 61 7.8
2010-04-28 07:17:04 51°16.044 2°56.103 60.8 11.8 62 7.8
2010-04-28 07:17:08 51°16.05 2°56.122 61 11.8 61 7.7
2010-04-28 07:17:14 51°16.06 2°56.149 60.9 11.8 62 7.7
2010-04-28 07:17:19 51°16.068 2°56.172 61.3 11.8 61 7.7
2010-04-28 07:17:23 51°16.074 2°56.19 61.3 11.8 62 7.8
2010-04-28 07:17:28 51°16.082 2°56.213 61.1 11.9 61 7.8
2010-04-28 07:17:34 51°16.092 2°56.241 61 11.8 61 7.7
2010-04-28 07:17:39 51°16.1 2°56.263 60.7 11.9 60 7.8
2010-04-28 07:17:43 51°16.106 2°56.282 60.4 11.9 61 7.8
2010-04-28 07:17:49 51°16.116 2°56.309 60.6 11.9 60 7.8
2010-04-28 07:17:54 51°16.124 2°56.332 60.3 11.9 60 7.8
2010-04-28 07:17:59 51°16.132 2°56.355 60.5 11.8 63 7.8
2010-04-28 07:18:03 51°16.137 2°56.374 62.4 11.9 64 7.8
2010-04-28 07:18:08 51°16.145 2°56.398 63.3 11.9 66 7.7
2010-04-28 07:18:14 51°16.152 2°56.428 65.2 11.9 66 7.7
2010-04-28 07:18:19 51°16.159 2°56.452 65.8 11.9 67 7.7
2010-04-28 07:18:23 51°16.164 2°56.471 66.6 11.9 68 7.8
2010-04-28 07:18:27 51°16.169 2°56.491 67.1 12 70 7.7
2010-04-28 07:18:33 51°16.176 2°56.52 67.7 12 69 7.7
2010-04-28 07:18:39 51°16.182 2°56.55 68.8 12 72 7.7
2010-04-28 07:18:43 51°16.186 2°56.57 69.3 11.9 70 7.7
2010-04-28 07:18:48 51°16.191 2°56.596 70 12 74 7.7
2010-04-28 07:18:54 51°16.197 2°56.626 71 12 72 5.7
2010-04-28 07:18:59 51°16.202 2°56.652 71.2 12.1 73 -999
2010-04-28 07:19:03 51°16.206 2°56.672 71.5 12.1 72 7.7
2010-04-28 07:19:09 51°16.212 2°56.702 71 12.2 70 7.7
2010-04-28 07:19:14 51°16.218 2°56.727 69.8 12 70 7.6
2010-04-28 07:19:19 51°16.224 2°56.751 69 11.9 68 7.6
2010-04-28 07:19:23 51°16.229 2°56.771 68.2 11.9 70 7.6
2010-04-28 07:19:28 51°16.235 2°56.795 67.5 12 66 7.6
2010-04-28 07:19:34 51°16.243 2°56.824 66.7 11.6 67 5.6
2010-04-28 07:19:39 51°16.249 2°56.845 66 10.7 66 7.5
2010-04-28 07:19:43 51°16.254 2°56.862 64.9 10.6 64 7.5
2010-04-28 07:19:48 51°16.261 2°56.885 63.5 11.3 64 7.7
2010-04-28 07:19:54 51°16.269 2°56.912 62.9 11.4 65 7.8
2010-04-28 07:19:59 51°16.275 2°56.935 64.6 11.2 67 7.7
2010-04-28 07:20:03 51°16.28 2°56.953 65.7 11.1 67 5.6
2010-04-28 07:20:08 51°16.286 2°56.976 66.9 11 70 5.7
2010-04-28 07:20:14 51°16.292 2°57.003 67.9 10.9 69 7.7
2010-04-28 07:20:19 51°16.297 2°57.025 68.8 10.8 71 7.8
2010-04-28 07:20:23 51°16.301 2°57.043 69.3 10.8 70 5.7
2010-04-28 07:20:27 51°16.305 2°57.061 69.6 10.7 73 5.7
2010-04-28 07:20:34 51°16.311 2°57.093 70.4 10.8 72 7.7
2010-04-28 07:20:39 51°16.315 2°57.116 70.7 10.9 73 7.7
2010-04-28 07:20:43 51°16.319 2°57.134 70.5 10.8 71 7.7
2010-04-28 07:20:48 51°16.324 2°57.157 70.1 10.8 72 7.7
2010-04-28 07:20:53 51°16.329 2°57.179 70.1 10.8 70 7.6
2010-04-28 07:20:59 51°16.335 2°57.207 69.7 10.9 71 7.7
2010-04-28 07:21:03 51°16.339 2°57.224 69.5 10.9 69 7.6
2010-04-28 07:21:08 51°16.345 2°57.247 68.7 10.9 66 5.6
2010-04-28 07:21:14 51°16.355 2°57.271 63.7 10.9 58 5.6
2010-04-28 07:21:19 51°16.362 2°57.293 61 11 59 7.6
2010-04-28 07:21:23 51°16.371 2°57.307 57.8 11 52 7.6
2010-04-28 07:21:29 51°16.381 2°57.332 55.8 11 54 7.6
2010-04-28 07:21:34 51°16.392 2°57.35 53.4 11.1 48 7.7
2010-04-28 07:21:39 51°16.401 2°57.369 52 11.1 50 7.6
2010-04-28 07:21:43 51°16.41 2°57.383 50.3 11.2 46 7.6
2010-04-28 07:21:48 51°16.421 2°57.401 49.2 11.3 46 7.7
2010-04-28 07:21:54 51°16.435 2°57.422 47.9 11.3 44 7.7
2010-04-28 07:21:59 51°16.446 2°57.44 47 11.3 45 7.7
2010-04-28 07:22:03 51°16.455 2°57.454 46.5 11.4 43 7.6
2010-04-28 07:22:08 51°16.467 2°57.471 45.8 11.5 44 5.7
2010-04-28 07:22:14 51°16.481 2°57.492 45.9 11.6 43 7.7
2010-04-28 07:22:19 51°16.493 2°57.51 45.7 11.6 44 7.7
2010-04-28 07:22:23 51°16.502 2°57.524 46 11.7 45 7.8
2010-04-28 07:22:28 51°16.513 2°57.542 46.7 11.7 45 7.8
2010-04-28 07:22:34 51°16.527 2°57.564 47.3 11.7 46 7.8
2010-04-28 07:22:39 51°16.538 2°57.583 48 11.7 47 7.8
2010-04-28 07:22:43 51°16.547 2°57.599 49 11.7 47 7.8
2010-04-28 07:22:48 51°16.557 2°57.618 49.4 11.8 48 7.9
2010-04-28 07:22:54 51°16.571 2°57.641 49.9 11.8 48 7.9
2010-04-28 07:22:59 51°16.582 2°57.66 50 11.8 46 7.9
2010-04-28 07:23:03 51°16.591 2°57.675 49 11.8 46 7.9
2010-04-28 07:23:08 51°16.603 2°57.694 48.1 11.8 44 7.9
2010-04-28 07:23:13 51°16.614 2°57.712 47.3 11.9 45 8
2010-04-28 07:23:19 51°16.629 2°57.734 46.7 11.9 43 8
2010-04-28 07:23:23 51°16.638 2°57.749 46 11.9 44 7.9
2010-04-28 07:23:28 51°16.65 2°57.767 46.2 11.9 44 8
2010-04-28 07:23:34 51°16.665 2°57.788 46.2 11.9 43 8.1
2010-04-28 07:23:39 51°16.676 2°57.807 46.5 12 45 8
2010-04-28 07:23:43 51°16.686 2°57.822 47.1 12 45 8
2010-04-28 07:23:49 51°16.699 2°57.845 48 11.9 47 7.9
2010-04-28 07:23:54 51°16.711 2°57.864 48.5 11.9 46 8.1
2010-04-28 07:23:54 51°16.711 2°57.864 48.5 11.9 46 8.1
2010-04-28 07:24:05 51°16.736 2°57.908 49.7 12.1 47 8.1
2010-04-28 07:24:05 51°16.736 2°57.908 49.7 12.1 47 8.1
2010-04-28 07:24:15 51°16.758 2°57.947 50.3 12 48 8.1
2010-04-28 07:24:15 51°16.758 2°57.947 50.3 12 48 8
2010-04-28 07:24:29 51°16.789 2°58.002 49.8 12 48 8.2
2010-04-28 07:24:34 51°16.801 2°58.021 49.4 12.1 46 8.1
2010-04-28 07:24:34 51°16.801 2°58.021 49.4 12.1 46 8.1
2010-04-28 07:24:43 51°16.822 2°58.055 48.2 12.1 45 8
2010-04-28 07:24:48 51°16.833 2°58.074 48.1 12 46 7.7
2010-04-28 07:24:54 51°16.848 2°58.097 47.8 12 45 8.1
2010-04-28 07:24:59 51°16.859 2°58.116 47.6 12 47 8.1
2010-04-28 07:24:59 51°16.859 2°58.116 47.6 12 47 8.1
2010-04-28 07:25:09 51°16.882 2°58.154 48 12 47 7.8
2010-04-28 07:25:15 51°16.896 2°58.176 48.3 12 45 8.1
2010-04-28 07:25:19 51°16.905 2°58.192 48.5 11.9 48 8
2010-04-28 07:25:35 51°16.941 2°58.255 49.5 12.1 48 8.1
2010-04-28 07:25:39 51°16.95 2°58.271 50 12.1 49 8.1
2010-04-28 07:25:44 51°16.961 2°58.291 50.4 12.2 48 8.1
2010-04-28 07:25:50 51°16.974 2°58.316 50.4 12.2 50 8.2
2010-04-28 07:25:50 51°16.974 2°58.316 50.4 12.2 50 8.2
2010-04-28 07:26:03 51°17.004 2°58.367 49.5 12 47 8.1
2010-04-28 07:26:03 51°17.004 2°58.367 49.5 12 47 8.1
2010-04-28 07:26:17 51°17.035 2°58.423 50.4 12 51 7.8
2010-04-28 07:26:17 51°17.035 2°58.423 50.4 12 51 7.8
2010-04-28 07:26:34 51°17.067 2°58.496 56.2 11.9 57 7.9
2010-04-28 07:26:49 51°17.094 2°58.564 59.2 12 58 8.1
2010-04-28 07:26:54 51°17.104 2°58.584 57.6 11.9 52 8
2010-04-28 07:26:54 51°17.104 2°58.584 57.6 11.9 52 8
2010-04-28 07:27:03 51°17.123 2°58.621 53.7 12 46 7.9
2010-04-28 07:27:08 51°17.135 2°58.64 49.9 12 46 8
2010-04-28 07:27:14 51°17.15 2°58.661 46.9 11.9 41 7.9
2010-04-28 07:27:19 51°17.162 2°58.678 45 11.9 40 7.9
2010-04-28 07:27:19 51°17.162 2°58.678 45 11.9 40 7.9
2010-04-28 07:27:30 51°17.191 2°58.713 40.8 11.8 37 7.8
2010-04-28 07:27:30 51°17.191 2°58.713 40.8 11.8 37 7.8
2010-04-28 07:27:40 51°17.218 2°58.742 38.6 11.8 33 7.6
2010-04-28 07:27:46 51°17.235 2°58.759 37.3 11.8 33 7.5
2010-04-28 07:28:02 51°17.28 2°58.803 35.8 11.8 31 7.4
2010-04-28 07:28:07 51°17.293 2°58.817 35.6 11.7 32 5.5
2010-04-28 07:28:11 51°17.304 2°58.828 35.3 11.7 31 7.5
2010-04-28 07:28:16 51°17.318 2°58.841 35.6 11.6 32 7.3
2010-04-28 07:28:22 51°17.334 2°58.857 35.7 11.1 32 7.3
2010-04-28 07:28:27 51°17.347 2°58.87 36.1 10.9 34 7.2
2010-04-28 07:28:31 51°17.357 2°58.881 37.3 10.8 35 7.4
2010-04-28 07:28:36 51°17.368 2°58.895 38.3 10.4 38 7.2
2010-04-28 07:28:41 51°17.379 2°58.91 40.4 9.9 42 7.3
2010-04-28 07:28:47 51°17.388 2°58.929 46.5 9.1 54 7.4
2010-04-28 07:28:51 51°17.393 2°58.942 54.7 8.4 62 5.5
2010-04-28 07:28:57 51°17.397 2°58.962 62 7.9 69 7.5
2010-04-28 07:29:02 51°17.399 2°58.977 69 7.2 78 7.5
2010-04-28 07:29:07 51°17.399 2°58.991 76.7 6.5 88 7.6
2010-04-28 07:29:11 51°17.398 2°59.002 82.8 6.1 95 7.6
2010-04-28 07:29:17 51°17.396 2°59.017 89.7 5.8 105 7.6
2010-04-28 07:29:21 51°17.394 2°59.026 96 5.4 111 7.6
2010-04-28 07:29:27 51°17.39 2°59.038 102.6 5.1 120 7.7
2010-04-28 07:29:31 51°17.386 2°59.045 108.1 4.9 125 7.7
2010-04-28 07:29:36 51°17.382 2°59.054 112.8 4.8 131 7.8
2010-04-28 07:29:42 51°17.377 2°59.063 117.4 4.6 135 7.8
2010-04-28 07:29:47 51°17.372 2°59.069 121.8 4.5 139 7.9
2010-04-28 07:29:51 51°17.368 2°59.074 126.1 4.4 144 7.9
2010-04-28 07:29:57 51°17.362 2°59.08 128.8 4.3 146 7.9
2010-04-28 07:30:02 51°17.357 2°59.085 130.9 4.2 149 8
2010-04-28 07:30:07 51°17.352 2°59.089 132.9 4.1 152 7.9
2010-04-28 07:30:11 51°17.348 2°59.092 134.5 4.1 154 8
2010-04-28 07:30:17 51°17.342 2°59.096 136.2 4 156 8
2010-04-28 07:30:22 51°17.337 2°59.1 137.4 3.9 156 8.1
2010-04-28 07:30:27 51°17.332 2°59.103 138.4 3.7 157 8.1
2010-04-28 07:30:31 51°17.328 2°59.105 139.3 3.7 159 8.2
2010-04-28 07:30:37 51°17.323 2°59.109 139.9 3.6 160 8.2
2010-04-28 07:30:41 51°17.319 2°59.111 140.4 3.5 161 8.2
2010-04-28 07:30:47 51°17.313 2°59.113 141.1 3.5 163 8.3
2010-04-28 07:30:51 51°17.31 2°59.115 142.7 3.6 166 8.3
2010-04-28 07:30:57 51°17.304 2°59.117 144.5 3.6 168 8.3
2010-04-28 07:31:02 51°17.299 2°59.118 146.7 3.6 171 8.4
2010-04-28 07:31:07 51°17.294 2°59.119 149.2 3.6 174 8.3
2010-04-28 07:31:11 51°17.29 2°59.119 151.8 3.7 177 8.2
2010-04-28 07:31:17 51°17.283 2°59.12 154 3.7 178 8.3
2010-04-28 07:31:21 51°17.279 2°59.12 155.9 3.7 180 8.2
2010-04-28 07:31:27 51°17.274 2°59.12 158 3.6 181 8.2
2010-04-28 07:31:31 51°17.269 2°59.119 159.6 3.6 182 8.3
2010-04-28 07:31:37 51°17.263 2°59.119 161.5 3.7 182 8.4
2010-04-28 07:31:42 51°17.258 2°59.118 162.7 3.8 183 8.4
2010-04-28 07:31:47 51°17.253 2°59.118 164.6 3.8 185 8.5
2010-04-28 07:31:51 51°17.249 2°59.117 166.5 3.7 186 8.4
2010-04-28 07:31:56 51°17.243 2°59.116 168 3.8 187 8.3
2010-04-28 07:32:02 51°17.237 2°59.115 170.2 3.8 189 8.3
2010-04-28 07:32:07 51°17.232 2°59.113 172.7 3.8 191 8.3
2010-04-28 07:32:11 51°17.228 2°59.112 175.1 3.8 192 8.3
2010-04-28 07:32:17 51°17.222 2°59.109 176.9 3.8 194 8.3
2010-04-28 07:32:22 51°17.216 2°59.107 179.4 3.9 196 8.3
2010-04-28 07:32:27 51°17.211 2°59.104 181.7 3.9 197 8.4
2010-04-28 07:32:31 51°17.207 2°59.102 184.4 3.9 199 8.4
2010-04-28 07:32:37 51°17.201 2°59.098 186.2 4 201 8.4
2010-04-28 07:32:41 51°17.196 2°59.096 188.3 4 202 8.4
2010-04-28 07:32:47 51°17.19 2°59.091 191 4 204 8.3
2010-04-28 07:32:51 51°17.186 2°59.088 192.8 4.1 205 8.4
2010-04-28 07:32:57 51°17.18 2°59.083 194.6 4.1 207 8.4
2010-04-28 07:33:02 51°17.175 2°59.079 196.6 4.1 209 8.4
2010-04-28 07:33:07 51°17.17 2°59.074 198.8 4.1 210 8.4
2010-04-28 07:33:11 51°17.166 2°59.071 201 4 211 8.4
2010-04-28 07:33:17 51°17.161 2°59.065 202.3 3.9 214 8.4
2010-04-28 07:33:21 51°17.157 2°59.061 204 3.9 215 8.4
2010-04-28 07:33:27 51°17.152 2°59.055 205.9 3.9 216 8.4
2010-04-28 07:33:31 51°17.148 2°59.051 207.3 4 216 8.4
2010-04-28 07:33:37 51°17.143 2°59.044 208.6 3.9 218 8.4
2010-04-28 07:33:41 51°17.14 2°59.04 210.2 3.9 219 8.5
2010-04-28 07:33:47 51°17.135 2°59.033 211.7 3.9 220 8.4
2010-04-28 07:33:51 51°17.132 2°59.029 213.3 3.8 222 8.4
2010-04-28 07:33:57 51°17.127 2°59.022 214.9 3.8 223 8.4
2010-04-28 07:34:02 51°17.123 2°59.016 216.4 3.8 224 8.4
2010-04-28 07:34:07 51°17.12 2°59.01 217.8 3.9 226 8.4
2010-04-28 07:34:11 51°17.117 2°59.005 219.3 3.8 227 8.4
2010-04-28 07:34:16 51°17.113 2°58.999 221.2 3.9 227 8.4
2010-04-28 07:34:22 51°17.109 2°58.991 222.5 3.8 228 8.5
2010-04-28 07:34:27 51°17.105 2°58.985 224 3.8 230 8.5
2010-04-28 07:34:31 51°17.103 2°58.98 225.3 3.8 230 8.5
2010-04-28 07:34:37 51°17.098 2°58.972 225.9 3.8 230 8.4
2010-04-28 07:34:42 51°17.095 2°58.965 226.4 3.8 232 8.4
2010-04-28 07:34:47 51°17.092 2°58.959 226.6 3.9 231 8.4
2010-04-28 07:34:51 51°17.089 2°58.953 226.8 3.8 231 8.4
2010-04-28 07:34:56 51°17.086 2°58.947 226.8 3.8 232 8.4
2010-04-28 07:35:02 51°17.081 2°58.939 226.8 3.9 230 8.4
2010-04-28 07:35:07 51°17.078 2°58.932 226.6 3.8 231 8.4
2010-04-28 07:35:11 51°17.076 2°58.927 226.4 3.8 231 8.5
2010-04-28 07:35:16 51°17.072 2°58.92 226.1 3.8 231 8.5
2010-04-28 07:35:22 51°17.068 2°58.913 226.1 3.8 231 8.4
2010-04-28 07:35:27 51°17.065 2°58.906 226 3.8 231 8.4
2010-04-28 07:35:31 51°17.063 2°58.901 225.8 3.7 232 8.4
2010-04-28 07:35:37 51°17.058 2°58.893 225.7 3.8 231 8.4
2010-04-28 07:35:42 51°17.055 2°58.887 225.5 3.7 231 8.4
2010-04-28 07:35:47 51°17.052 2°58.88 225.4 3.7 232 8.4
2010-04-28 07:35:51 51°17.049 2°58.875 225.2 3.8 230 8.5
2010-04-28 07:35:57 51°17.045 2°58.867 225.1 3.7 231 8.4
2010-04-28 07:36:02 51°17.042 2°58.861 225.1 3.7 230 8.5
2010-04-28 07:36:07 51°17.038 2°58.855 225.1 3.8 230 8.5
2010-04-28 07:36:11 51°17.036 2°58.85 225.1 3.7 230 8.4
2010-04-28 07:36:17 51°17.032 2°58.842 225.1 3.7 232 8.5
2010-04-28 07:36:22 51°17.029 2°58.836 225.1 3.7 230 8.5
2010-04-28 07:36:27 51°17.026 2°58.829 225.1 3.7 232 8.5
2010-04-28 07:36:31 51°17.023 2°58.824 225.1 3.6 231 8.5
2010-04-28 07:36:36 51°17.02 2°58.818 225.1 3.7 232 8.4
2010-04-28 07:36:42 51°17.016 2°58.81 225.1 3.7 230 8.5
2010-04-28 07:36:47 51°17.013 2°58.804 225.1 3.7 231 8.4
2010-04-28 07:36:51 51°17.01 2°58.799 225.1 3.7 230 8.5
2010-04-28 07:36:56 51°17.007 2°58.793 225 3.6 232 8.5
2010-04-28 07:37:02 51°17.003 2°58.785 225 3.7 230 8.5
2010-04-28 07:37:07 51°16.999 2°58.779 224.9 3.7 231 8.5
2010-04-28 07:37:11 51°16.997 2°58.773 224.9 3.6 232 8.5
2010-04-28 07:37:16 51°16.994 2°58.767 224.9 3.7 232 8.4
2010-04-28 07:37:22 51°16.99 2°58.76 224.9 3.6 231 8.4
2010-04-28 07:37:27 51°16.987 2°58.753 224.8 3.7 232 8.5
2010-04-28 07:37:31 51°16.984 2°58.748 224.8 3.7 230 8.5
2010-04-28 07:37:36 51°16.981 2°58.742 224.7 3.6 232 8.5
2010-04-28 07:37:41 51°16.978 2°58.736 224.7 3.6 232 8.5
2010-04-28 07:37:47 51°16.974 2°58.728 224.6 3.6 232 8.5
2010-04-28 07:37:51 51°16.971 2°58.723 224.5 3.7 230 8.5
2010-04-28 07:37:57 51°16.967 2°58.716 224.4 3.7 231 8.4
2010-04-28 07:38:02 51°16.964 2°58.71 224.4 3.6 231 8.5
2010-04-28 07:38:07 51°16.961 2°58.703 224.4 3.7 231 8.5
2010-04-28 07:38:11 51°16.958 2°58.698 224.4 3.7 230 8.5
2010-04-28 07:38:17 51°16.954 2°58.691 224.4 3.7 229 8.5
2010-04-28 07:38:22 51°16.951 2°58.685 224.4 3.6 231 8.6
2010-04-28 07:38:27 51°16.948 2°58.678 224.3 3.7 230 8.6
2010-04-28 07:38:31 51°16.945 2°58.673 224.1 3.7 230 8.6
2010-04-28 07:38:37 51°16.941 2°58.666 224 3.6 230 8.6
2010-04-28 07:38:42 51°16.938 2°58.66 223.8 3.6 230 8.5
2010-04-28 07:38:47 51°16.935 2°58.654 223.6 3.7 229 8.5
2010-04-28 07:38:51 51°16.932 2°58.649 223.4 3.7 230 8.4
2010-04-28 07:38:56 51°16.929 2°58.643 223.3 3.7 229 8.4
2010-04-28 07:39:01 51°16.926 2°58.637 223.2 3.7 230 8.5
2010-04-28 07:39:07 51°16.922 2°58.629 223.1 3.7 230 8.5
2010-04-28 07:39:11 51°16.919 2°58.624 222.9 3.7 229 8.5
2010-04-28 07:39:16 51°16.916 2°58.618 222.9 3.7 230 8.5
2010-04-28 07:39:22 51°16.911 2°58.611 222.9 3.7 228 8.6
2010-04-28 07:39:27 51°16.908 2°58.605 222.9 3.7 230 8.6
2010-04-28 07:39:31 51°16.906 2°58.6 223 3.6 229 8.6
2010-04-28 07:39:37 51°16.902 2°58.592 223 3.7 231 8.5
2010-04-28 07:39:41 51°16.899 2°58.587 223.2 3.6 228 8.4
2010-04-28 07:39:47 51°16.895 2°58.58 223.2 3.7 230 8.5
2010-04-28 07:39:51 51°16.892 2°58.575 223.3 3.7 228 8.4
2010-04-28 07:39:57 51°16.888 2°58.567 223.4 3.7 230 8.5
2010-04-28 07:40:01 51°16.886 2°58.563 223.5 3.7 229 8.4
2010-04-28 07:40:07 51°16.882 2°58.555 223.5 3.6 230 8.6
2010-04-28 07:40:11 51°16.879 2°58.55 223.5 3.6 230 8.5
2010-04-28 07:40:16 51°16.876 2°58.544 223.6 3.7 228 8.6
2010-04-28 07:40:22 51°16.872 2°58.536 223.6 3.7 231 8.5
2010-04-28 07:40:27 51°16.868 2°58.53 223.7 3.7 227 8.6
2010-04-28 07:40:31 51°16.866 2°58.525 223.8 3.7 231 8.5
2010-04-28 07:40:37 51°16.862 2°58.518 223.8 3.7 227 8.5
2010-04-28 07:40:42 51°16.859 2°58.512 223.8 3.7 232 8.5
2010-04-28 07:40:47 51°16.855 2°58.506 223.8 3.7 229 8.5
2010-04-28 07:40:51 51°16.853 2°58.501 223.9 3.7 231 8.3
2010-04-28 07:40:57 51°16.849 2°58.493 224 3.7 229 8.3
2010-04-28 07:41:02 51°16.846 2°58.487 224.2 3.7 232 8.4
2010-04-28 07:41:07 51°16.842 2°58.481 224.2 3.7 229 8.6
2010-04-28 07:41:11 51°16.84 2°58.476 224.3 3.7 231 8.6
2010-04-28 07:41:16 51°16.836 2°58.47 224.3 3.7 229 8.5
2010-04-28 07:41:22 51°16.833 2°58.462 224.4 3.7 231 8.4
2010-04-28 07:41:27 51°16.829 2°58.456 224.4 3.7 229 8.5
2010-04-28 07:41:31 51°16.826 2°58.451 224.4 3.7 230 8.4
2010-04-28 07:41:37 51°16.822 2°58.443 224.4 3.7 230 8.5
2010-04-28 07:41:42 51°16.819 2°58.437 224.4 3.7 231 8.4
2010-04-28 07:41:47 51°16.816 2°58.431 224.4 3.8 230 8.5
2010-04-28 07:41:51 51°16.813 2°58.426 224.4 3.8 230 8.4
2010-04-28 07:41:57 51°16.809 2°58.418 224.4 3.7 230 8.4
2010-04-28 07:42:02 51°16.806 2°58.412 224.4 3.8 230 8.5
2010-04-28 07:42:07 51°16.802 2°58.406 224.4 3.7 229 8.5
2010-04-28 07:42:11 51°16.8 2°58.401 224.4 3.7 230 8.6
2010-04-28 07:42:17 51°16.796 2°58.393 224.3 3.7 230 8.5
2010-04-28 07:42:21 51°16.793 2°58.388 224.3 3.7 230 8.5
2010-04-28 07:42:27 51°16.789 2°58.38 224.2 3.7 230 8.5
2010-04-28 07:42:31 51°16.787 2°58.375 224.2 3.7 229 8.6
2010-04-28 07:42:36 51°16.783 2°58.369 224.2 3.7 230 8.5
2010-04-28 07:42:41 51°16.78 2°58.362 224.1 3.7 229 8.6
2010-04-28 07:42:47 51°16.776 2°58.355 224.1 3.7 230 8.5
2010-04-28 07:42:51 51°16.773 2°58.35 224.1 3.7 230 8.5
2010-04-28 07:42:56 51°16.77 2°58.344 224.3 3.7 230 8.5
2010-04-28 07:43:02 51°16.766 2°58.336 224.3 3.7 229 8.5
2010-04-28 07:43:07 51°16.763 2°58.33 224.2 3.7 231 8.5
2010-04-28 07:43:11 51°16.76 2°58.325 224.2 3.7 228 8.5
2010-04-28 07:43:17 51°16.756 2°58.317 224.3 3.7 231 8.6
2010-04-28 07:43:22 51°16.752 2°58.311 224.3 3.7 228 8.5
2010-04-28 07:43:27 51°16.749 2°58.305 224.1 3.7 231 8.5
2010-04-28 07:43:31 51°16.746 2°58.299 224.1 3.7 228 8.5
2010-04-28 07:43:36 51°16.743 2°58.293 223.9 3.8 230 8.5
2010-04-28 07:43:42 51°16.739 2°58.286 223.9 3.7 228 8.6
2010-04-28 07:43:47 51°16.736 2°58.279 223.8 3.7 231 8.5
2010-04-28 07:43:51 51°16.733 2°58.274 223.8 3.7 228 8.5
2010-04-28 07:43:56 51°16.729 2°58.268 224 3.7 231 8.5
2010-04-28 07:44:02 51°16.725 2°58.261 224 3.7 229 8.5
2010-04-28 07:44:07 51°16.722 2°58.254 224.2 3.7 230 8.5
2010-04-28 07:44:11 51°16.719 2°58.249 224.2 3.7 230 8.5
2010-04-28 07:44:17 51°16.715 2°58.242 224.3 3.7 229 8.5
2010-04-28 07:44:21 51°16.713 2°58.237 224.3 3.7 230 8.5
2010-04-28 07:44:27 51°16.709 2°58.229 224.3 3.7 229 8.5
2010-04-28 07:44:31 51°16.706 2°58.224 224.4 3.7 231 8.5
2010-04-28 07:44:37 51°16.702 2°58.217 224.4 3.7 229 8.5
2010-04-28 07:44:41 51°16.699 2°58.212 224.4 3.7 230 8.5
2010-04-28 07:44:47 51°16.695 2°58.204 224.5 3.7 229 8.5
2010-04-28 07:44:51 51°16.692 2°58.199 224.5 3.7 230 8.5
2010-04-28 07:44:56 51°16.689 2°58.193 224.5 3.7 230 8.5
2010-04-28 07:45:02 51°16.685 2°58.185 224.5 3.7 231 8.4
2010-04-28 07:45:07 51°16.681 2°58.179 224.5 3.7 229 8.5
2010-04-28 07:45:11 51°16.679 2°58.174 224.5 3.7 229 8.5
2010-04-28 07:45:17 51°16.675 2°58.167 224.5 3.7 230 8.5
2010-04-28 07:45:22 51°16.671 2°58.161 224.5 3.7 230 8.5
2010-04-28 07:45:27 51°16.668 2°58.154 224.5 3.7 230 8.4
2010-04-28 07:45:31 51°16.665 2°58.149 224.5 3.8 229 8.5
2010-04-28 07:45:37 51°16.661 2°58.142 224.6 3.7 230 8.5
2010-04-28 07:45:42 51°16.658 2°58.135 224.7 3.7 230 8.5
2010-04-28 07:45:47 51°16.654 2°58.129 224.7 3.7 230 8.5
2010-04-28 07:45:51 51°16.652 2°58.124 224.7 3.7 230 8.5
2010-04-28 07:45:56 51°16.649 2°58.118 224.6 3.7 230 8.4
2010-04-28 07:46:02 51°16.645 2°58.11 224.7 3.7 230 8.4
2010-04-28 07:46:07 51°16.641 2°58.104 225.3 3.7 230 8.5
2010-04-28 07:46:11 51°16.639 2°58.099 226 3.7 231 8.5
2010-04-28 07:46:16 51°16.635 2°58.092 227 3.7 231 8.5
2010-04-28 07:46:21 51°16.632 2°58.086 227.9 3.7 232 8.5
2010-04-28 07:46:27 51°16.628 2°58.078 229.2 3.7 233 8.5
2010-04-28 07:46:31 51°16.626 2°58.072 230.8 3.7 234 8.5
2010-04-28 07:46:36 51°16.623 2°58.066 232.3 3.7 234 8.4
2010-04-28 07:46:41 51°16.62 2°58.059 233.6 3.7 235 8.5
2010-04-28 07:46:47 51°16.617 2°58.051 235 3.7 236 8.4
2010-04-28 07:46:51 51°16.614 2°58.046 236.2 3.7 236 8.4
2010-04-28 07:46:57 51°16.611 2°58.037 237.4 3.7 237 8.5
2010-04-28 07:47:02 51°16.608 2°58.03 238.2 3.7 238 8.5
2010-04-28 07:47:07 51°16.605 2°58.023 238.8 3.7 238 8.4
2010-04-28 07:47:11 51°16.603 2°58.018 239.3 3.7 238 8.4
2010-04-28 07:47:17 51°16.6 2°58.009 239.7 3.7 238 8.4
2010-04-28 07:47:21 51°16.598 2°58.004 240 3.7 239 8.4
2010-04-28 07:47:27 51°16.595 2°57.995 240.2 3.7 238 8.4
2010-04-28 07:47:31 51°16.593 2°57.99 240.3 3.7 239 8.4
2010-04-28 07:47:37 51°16.59 2°57.981 240.3 3.7 239 8.4
2010-04-28 07:47:42 51°16.587 2°57.974 240.3 3.7 239 8.5
2010-04-28 07:47:47 51°16.584 2°57.967 240.3 3.7 239 8.4
2010-04-28 07:47:51 51°16.582 2°57.961 240.3 3.7 239 8.4
2010-04-28 07:47:57 51°16.579 2°57.953 240.3 3.8 239 8.4
2010-04-28 07:48:02 51°16.576 2°57.946 240.3 3.7 239 8.5
2010-04-28 07:48:07 51°16.573 2°57.939 240.5 3.7 239 8.4
2010-04-28 07:48:11 51°16.571 2°57.933 240.9 3.7 240 8.5
2010-04-28 07:48:16 51°16.569 2°57.926 241.5 3.7 240 8.4
2010-04-28 07:48:22 51°16.566 2°57.917 241.9 3.7 241 8.4
2010-04-28 07:48:27 51°16.563 2°57.91 242.9 3.7 241 8.4
2010-04-28 07:48:31 51°16.561 2°57.904 243.7 3.7 241 8.4
2010-04-28 07:48:36 51°16.559 2°57.897 244.5 3.7 243 8.2
2010-04-28 07:48:42 51°16.556 2°57.888 245.4 3.7 242 8.4
2010-04-28 07:48:47 51°16.554 2°57.881 246.9 3.7 245 8.4
2010-04-28 07:48:51 51°16.552 2°57.875 248.4 3.7 244 8.3
2010-04-28 07:48:57 51°16.55 2°57.866 250 3.6 247 8.2
2010-04-28 07:49:02 51°16.548 2°57.859 251.5 3.6 247 8.3
2010-04-28 07:49:07 51°16.546 2°57.852 253.4 3.6 248 8.4
2010-04-28 07:49:11 51°16.545 2°57.846 255.8 3.6 250 8.4
2010-04-28 07:49:17 51°16.543 2°57.837 257.6 3.5 250 8.3
2010-04-28 07:49:22 51°16.541 2°57.829 259.3 3.5 252 8.4
2010-04-28 07:49:27 51°16.54 2°57.822 260.7 3.5 252 8.4
2010-04-28 07:49:31 51°16.539 2°57.816 261.8 3.5 253 8.4
2010-04-28 07:49:36 51°16.537 2°57.809 262.6 3.5 253 8.4
2010-04-28 07:49:42 51°16.536 2°57.8 263.4 3.5 254 8.5
2010-04-28 07:49:47 51°16.534 2°57.792 264.2 3.5 255 8.4
2010-04-28 07:49:51 51°16.533 2°57.786 264.8 3.5 255 8.4
2010-04-28 07:49:56 51°16.532 2°57.779 265.4 3.5 255 8.4
2010-04-28 07:50:02 51°16.53 2°57.77 265.7 3.5 254 8.5
2010-04-28 07:50:06 51°16.529 2°57.764 266.1 3.5 255 8.4
2010-04-28 07:50:11 51°16.528 2°57.757 266.3 3.5 255 8.4
2010-04-28 07:50:16 51°16.527 2°57.749 266.5 3.4 256 8.4
2010-04-28 07:50:22 51°16.525 2°57.74 266.5 3.4 254 8.5
2010-04-28 07:50:27 51°16.524 2°57.733 266.5 3.4 256 8.4
2010-04-28 07:50:31 51°16.523 2°57.727 266.5 3.4 255 8.4
2010-04-28 07:50:36 51°16.522 2°57.72 266.6 3.4 256 8.3
2010-04-28 07:50:41 51°16.521 2°57.713 266.6 3.4 254 8.4
2010-04-28 07:50:47 51°16.52 2°57.704 266.6 3.4 257 8.4
2010-04-28 07:50:51 51°16.518 2°57.698 266.6 3.4 254 8.4
2010-04-28 07:50:56 51°16.518 2°57.691 266.5 3.3 256 8.3
2010-04-28 07:51:01 51°16.516 2°57.684 266.5 3.3 256 8.4
2010-04-28 07:51:07 51°16.515 2°57.675 266.3 3.3 257 8.3
2010-04-28 07:51:11 51°16.514 2°57.669 266.2 3.5 254 8.4
2010-04-28 07:51:16 51°16.513 2°57.662 266.1 3.6 256 8.4
2010-04-28 07:51:22 51°16.511 2°57.652 266.1 3.8 257 8.4
2010-04-28 07:51:26 51°16.51 2°57.645 266 3.9 257 8.4
2010-04-28 07:51:31 51°16.509 2°57.636 266 4 256 8.4
2010-04-28 07:51:36 51°16.508 2°57.628 265.8 4.1 256 8.4
2010-04-28 07:51:41 51°16.506 2°57.619 265.7 4.2 257 8.5
2010-04-28 07:51:47 51°16.504 2°57.608 265.7 4.3 256 8.4
2010-04-28 07:51:51 51°16.503 2°57.6 266.3 4.4 259 8.4
2010-04-28 07:51:56 51°16.502 2°57.59 267 4.5 258 8.5
2010-04-28 07:52:02 51°16.501 2°57.578 268.2 4.6 260 8.5
2010-04-28 07:52:06 51°16.5 2°57.57 269.7 4.7 260 8.4
2010-04-28 07:52:11 51°16.499 2°57.56 271.3 4.8 262 8.5
2010-04-28 07:52:16 51°16.498 2°57.549 273 4.8 263 8.5
2010-04-28 07:52:22 51°16.497 2°57.536 274.6 4.9 265 8.5
2010-04-28 07:52:27 51°16.497 2°57.525 276.4 5 266 8.5
2010-04-28 07:52:31 51°16.497 2°57.516 278.4 5.1 268 8.5
2010-04-28 07:52:36 51°16.497 2°57.504 280.3 5.5 271 8.5
2010-04-28 07:52:42 51°16.497 2°57.489 282.4 5.9 273 8.6
2010-04-28 07:52:47 51°16.498 2°57.475 284.7 6.2 277 8.6
2010-04-28 07:52:51 51°16.5 2°57.464 287.3 6.6 280 8.4
2010-04-28 07:52:56 51°16.502 2°57.449 289.8 6.8 283 8.6
2010-04-28 07:53:01 51°16.504 2°57.434 292.7 7.1 286 8.7
2010-04-28 07:53:07 51°16.508 2°57.416 295.5 7.3 288 8.6
2010-04-28 07:53:11 51°16.511 2°57.403 298.7 7.4 291 8.6
2010-04-28 07:53:16 51°16.515 2°57.388 301 7.6 294 8.5
2010-04-28 07:53:21 51°16.519 2°57.372 303.8 7.7 296 8.7
2010-04-28 07:53:27 51°16.526 2°57.354 306.5 7.8 298 8.6
2010-04-28 07:53:31 51°16.53 2°57.342 308.3 8 299 8.8
2010-04-28 07:53:36 51°16.536 2°57.327 309.7 8 301 8.7
2010-04-28 07:53:41 51°16.542 2°57.311 310.8 8.1 302 8.7
2010-04-28 07:53:47 51°16.549 2°57.294 312 7.9 303 8.8
2010-04-28 07:53:51 51°16.553 2°57.283 313 7.5 303 8.8
2010-04-28 07:53:56 51°16.559 2°57.27 314.2 7.1 305 8.7
2010-04-28 07:54:01 51°16.564 2°57.257 316 6.7 306 8.8
2010-04-28 07:54:07 51°16.571 2°57.244 318.5 6.4 308 8.8
2010-04-28 07:54:11 51°16.575 2°57.236 321.5 6 311 9
2010-04-28 07:54:16 51°16.58 2°57.226 324.4 5.7 312 8.7
2010-04-28 07:54:22 51°16.587 2°57.216 327.1 5.4 315 8.8
2010-04-28 07:54:27 51°16.592 2°57.208 329.7 5.1 316 8.8
2010-04-28 07:54:31 51°16.596 2°57.202 332.3 4.9 318 8.9
2010-04-28 07:54:36 51°16.601 2°57.195 334.7 4.6 319 9.1
2010-04-28 07:54:42 51°16.607 2°57.188 337.1 4.4 322 9
2010-04-28 07:54:47 51°16.611 2°57.183 339.6 4.2 323 9
2010-04-28 07:54:51 51°16.615 2°57.179 341.7 4 325 9.1
2010-04-28 07:54:56 51°16.619 2°57.174 344 3.8 327 9.2
2010-04-28 07:55:02 51°16.625 2°57.169 345.9 3.7 329 9.2
2010-04-28 07:55:07 51°16.629 2°57.165 348 3.5 330 9.2
2010-04-28 07:55:11 51°16.632 2°57.162 349.9 3.4 332 9.2
2010-04-28 07:55:16 51°16.636 2°57.159 351.9 3.2 333 9.2
2010-04-28 07:55:21 51°16.639 2°57.156 353.6 3 334 9.2
2010-04-28 07:55:27 51°16.644 2°57.153 355.1 2.9 335 9.2
2010-04-28 07:55:31 51°16.647 2°57.151 356.7 2.8 336 9.2
2010-04-28 07:55:36 51°16.65 2°57.149 358.3 2.7 337 9.2
2010-04-28 07:55:41 51°16.654 2°57.146 359.9 2.6 339 9.1
2010-04-28 07:55:47 51°16.658 2°57.144 1.4 2.5 340 9.2
2010-04-28 07:55:51 51°16.66 2°57.143 2.8 2.3 341 9.2
2010-04-28 07:55:56 51°16.663 2°57.141 4.2 2.3 341 9.2
2010-04-28 07:56:01 51°16.666 2°57.14 5.6 2.3 343 9.1
2010-04-28 07:56:07 51°16.67 2°57.138 7 2.1 344 9.2
2010-04-28 07:56:11 51°16.672 2°57.137 8.2 2.1 344 9.2
2010-04-28 07:56:16 51°16.674 2°57.136 9.5 2.1 346 9.3
2010-04-28 07:56:22 51°16.678 2°57.135 10.3 2 346 9.2
2010-04-28 07:56:26 51°16.68 2°57.134 11.2 2.1 348 9.3
2010-04-28 07:56:31 51°16.683 2°57.133 11.7 2.2 350 9.2
2010-04-28 07:56:36 51°16.686 2°57.132 11.9 2.3 351 9.2
2010-04-28 07:56:41 51°16.689 2°57.132 11.9 2.4 352 9.2
2010-04-28 07:56:47 51°16.694 2°57.131 11.6 2.7 355 9.1
2010-04-28 07:56:51 51°16.697 2°57.13 11 3 355 9
2010-04-28 07:56:56 51°16.701 2°57.129 11 3.2 358 9.1
2010-04-28 07:57:02 51°16.707 2°57.129 12.1 3.5 -999 9
2010-04-28 07:57:07 51°16.712 2°57.13 13.8 3.7 4 9
2010-04-28 07:57:11 51°16.716 2°57.131 16 3.9 8 9
2010-04-28 07:57:16 51°16.722 2°57.132 18.4 4.1 10 9
2010-04-28 07:57:22 51°16.729 2°57.135 21.1 4.3 15 9
2010-04-28 07:57:27 51°16.735 2°57.138 24 4.4 18 9
2010-04-28 07:57:31 51°16.74 2°57.141 26.8 4.6 22 9
2010-04-28 07:57:36 51°16.745 2°57.146 29.6 4.7 25 9
2010-04-28 07:57:41 51°16.751 2°57.151 32.5 4.9 30 9.1
2010-04-28 07:57:47 51°16.758 2°57.158 36 5.2 35 8.9
2010-04-28 07:57:51 51°16.763 2°57.165 40.2 5.5 41 8.9
2010-04-28 07:57:56 51°16.769 2°57.174 45 5.7 47 8.9
2010-04-28 07:58:01 51°16.774 2°57.184 49.7 5.9 53 9
2010-04-28 07:58:06 51°16.778 2°57.195 54.8 6.1 59 8.7
2010-04-28 07:58:11 51°16.782 2°57.207 59.6 6.3 64 8.7
2010-04-28 07:58:16 51°16.785 2°57.221 64.6 6.4 71 8.9
2010-04-28 07:58:21 51°16.787 2°57.235 69.8 6.5 76 8.8
2010-04-28 07:58:26 51°16.789 2°57.249 74.7 6.7 82 8.9
2010-04-28 07:58:31 51°16.79 2°57.264 79.9 6.8 89 8.9
2010-04-28 07:58:36 51°16.789 2°57.28 85.1 7 93 8.9
2010-04-28 07:58:41 51°16.788 2°57.295 90.3 7.1 101 8.8
2010-04-28 07:58:47 51°16.785 2°57.313 95.4 7 106 8.9
2010-04-28 07:58:51 51°16.781 2°57.324 102.4 6.8 118 8.9
2010-04-28 07:58:56 51°16.776 2°57.336 111.9 6.6 128 8.9
2010-04-28 07:59:02 51°16.768 2°57.347 121.3 6.2 137 9
2010-04-28 07:59:07 51°16.762 2°57.355 128.1 5.7 141 9
2010-04-28 07:59:11 51°16.757 2°57.361 132.1 5.3 143 9.2
2010-04-28 07:59:16 51°16.751 2°57.367 134.7 5.1 148 9.2
2010-04-28 07:59:22 51°16.744 2°57.374 137.3 4.8 149 9.1
2010-04-28 07:59:27 51°16.738 2°57.378 139.5 4.7 154 9.2
2010-04-28 07:59:31 51°16.734 2°57.381 141.7 4.5 155 9.2
2010-04-28 07:59:36 51°16.728 2°57.385 143.7 4.3 159 9.2
2010-04-28 07:59:42 51°16.722 2°57.389 145.5 4.2 160 9.3
2010-04-28 07:59:47 51°16.716 2°57.392 147.1 4.1 162 9.3
2010-04-28 07:59:51 51°16.712 2°57.393 148.3 3.9 164 9.3
2010-04-28 07:59:56 51°16.707 2°57.396 149.7 3.8 166 9.3
2010-04-28 08:00:01 51°16.702 2°57.397 150.7 3.7 168 9.3
2010-04-28 08:00:06 51°16.697 2°57.399 152 3.7 169 9.2
2010-04-28 08:00:11 51°16.692 2°57.4 153.2 3.6 171 9.3
2010-04-28 08:00:16 51°16.687 2°57.401 154.5 3.5 174 9.1
2010-04-28 08:00:21 51°16.683 2°57.402 155.7 3.3 174 9.2
2010-04-28 08:00:26 51°16.678 2°57.402 156.8 3.4 178 9.2
2010-04-28 08:00:31 51°16.673 2°57.403 158.4 3.3 178 9.2
2010-04-28 08:00:36 51°16.669 2°57.402 159.8 3.3 182 9.2
2010-04-28 08:00:41 51°16.665 2°57.402 161.3 3.2 182 9.2
2010-04-28 08:00:47 51°16.659 2°57.401 162.5 3.1 185 9.2
2010-04-28 08:00:51 51°16.656 2°57.401 164.1 3 186 9.1
2010-04-28 08:00:56 51°16.652 2°57.4 165.4 3.1 188 9.2
2010-04-28 08:01:02 51°16.647 2°57.399 166.7 3 188 9.2
2010-04-28 08:01:06 51°16.644 2°57.398 167.7 3 190 9.1
2010-04-28 08:01:11 51°16.64 2°57.397 168.7 2.9 192 9.1
2010-04-28 08:01:16 51°16.636 2°57.395 169.7 2.9 192 9.1
2010-04-28 08:01:22 51°16.631 2°57.393 170.6 2.8 194 9
2010-04-28 08:01:27 51°16.627 2°57.392 171.2 2.7 194 9
2010-04-28 08:01:31 51°16.625 2°57.391 171.9 2.8 196 8.9
2010-04-28 08:01:36 51°16.621 2°57.389 172.6 2.7 195 9
2010-04-28 08:01:42 51°16.617 2°57.387 173.1 2.7 197 9
2010-04-28 08:01:47 51°16.613 2°57.386 173.6 2.6 197 9
2010-04-28 08:01:51 51°16.61 2°57.384 174.2 2.6 196 9
2010-04-28 08:01:56 51°16.607 2°57.382 174.3 2.6 198 9
2010-04-28 08:02:01 51°16.603 2°57.381 174.8 2.7 199 9
2010-04-28 08:02:07 51°16.599 2°57.378 175.2 2.8 197 8.9
2010-04-28 08:02:11 51°16.596 2°57.377 176.5 3.1 198 9
2010-04-28 08:02:16 51°16.591 2°57.374 179.4 3.3 199 8.9
2010-04-28 08:02:22 51°16.586 2°57.371 183.3 3.5 202 9.1
2010-04-28 08:02:26 51°16.582 2°57.368 188 3.8 205 8.9
2010-04-28 08:02:31 51°16.577 2°57.364 193.4 4 207 8.9
2010-04-28 08:02:36 51°16.572 2°57.359 199 4.3 213 8.9
2010-04-28 08:02:41 51°16.567 2°57.353 204.8 4.7 215 9
2010-04-28 08:02:47 51°16.561 2°57.344 210.3 5 223 9
2010-04-28 08:02:51 51°16.557 2°57.337 219.6 5.3 228 9
2010-04-28 08:02:56 51°16.553 2°57.328 227.6 5.6 235 9.1
2010-04-28 08:03:02 51°16.547 2°57.315 235.7 5.9 240 9
2010-04-28 08:03:06 51°16.545 2°57.305 241.9 6.1 245 8.9
2010-04-28 08:03:11 51°16.541 2°57.291 248.2 6.7 246 8.9
2010-04-28 08:03:16 51°16.537 2°57.276 250.2 7.6 247 8.9
2010-04-28 08:03:22 51°16.531 2°57.256 250.5 8.4 247 8.8
2010-04-28 08:03:27 51°16.526 2°57.237 249.9 9.2 245 8.9
2010-04-28 08:03:31 51°16.522 2°57.222 248.3 9.8 246 8.9
2010-04-28 08:03:36 51°16.515 2°57.201 247.5 10.6 245 8.8
2010-04-28 08:03:42 51°16.508 2°57.174 247.2 11.3 246 8.7
2010-04-28 08:03:46 51°16.502 2°57.154 247.3 12 245 8.8
2010-04-28 08:03:51 51°16.495 2°57.129 247.3 12.5 246 8.7
2010-04-28 08:03:56 51°16.488 2°57.104 247.5 12.9 246 8.7
2010-04-28 08:04:01 51°16.48 2°57.077 247.6 13.2 246 8.8
2010-04-28 08:04:07 51°16.471 2°57.044 247.6 13.5 246 8.9
2010-04-28 08:04:11 51°16.465 2°57.022 247.7 13.7 247 8.7
2010-04-28 08:04:16 51°16.458 2°56.994 247.8 13.8 246 8.6
2010-04-28 08:04:21 51°16.45 2°56.966 248 13.9 248 8.7
2010-04-28 08:04:27 51°16.442 2°56.931 248.9 14 248 8.7
2010-04-28 08:04:31 51°16.436 2°56.908 249.8 14 249 8.8
2010-04-28 08:04:36 51°16.429 2°56.879 250.5 14.1 249 8.6
2010-04-28 08:04:41 51°16.422 2°56.85 250.9 14.1 250 8.6
2010-04-28 08:04:47 51°16.414 2°56.814 251.4 14.2 251 8.7
2010-04-28 08:04:51 51°16.409 2°56.791 252 14.3 250 8.7
2010-04-28 08:04:56 51°16.402 2°56.761 251.9 14.3 250 8.7
2010-04-28 08:05:02 51°16.394 2°56.725 252.1 14.3 250 8.7
2010-04-28 08:05:06 51°16.388 2°56.701 251.9 14.4 250 8.7
2010-04-28 08:05:11 51°16.382 2°56.671 251.7 14.4 250 8.7
2010-04-28 08:05:16 51°16.374 2°56.642 251 14.5 248 8.7
2010-04-28 08:05:22 51°16.365 2°56.606 250.3 14.5 248 8.7
2010-04-28 08:05:27 51°16.358 2°56.576 250.3 14.5 248 8.7
2010-04-28 08:05:31 51°16.352 2°56.552 249.8 14.6 248 8.7
2010-04-28 08:05:36 51°16.344 2°56.522 249.5 14.6 248 8.7
2010-04-28 08:05:42 51°16.335 2°56.486 249.3 14.6 249 8.7
2010-04-28 08:05:46 51°16.329 2°56.462 249.4 14.6 249 8.8
2010-04-28 08:05:51 51°16.323 2°56.431 250.9 14.6 252 8.7
2010-04-28 08:05:56 51°16.317 2°56.4 252.2 14.7 251 8.7
2010-04-28 08:06:02 51°16.31 2°56.363 253.4 14.7 253 8.7
2010-04-28 08:06:07 51°16.303 2°56.332 254.2 14.7 253 8.8
2010-04-28 08:06:11 51°16.299 2°56.307 254.7 14.6 254 8.7
2010-04-28 08:06:16 51°16.293 2°56.276 255.5 14.7 254 8.7
2010-04-28 08:06:22 51°16.287 2°56.239 255.8 14.7 254 8.7
2010-04-28 08:06:27 51°16.281 2°56.208 256.3 14.7 254 8.7
2010-04-28 08:06:31 51°16.277 2°56.183 256.7 14.7 254 8.7
2010-04-28 08:06:36 51°16.271 2°56.151 256.7 14.7 254 8.9
2010-04-28 08:06:41 51°16.265 2°56.12 256.8 14.8 254 8.7
2010-04-28 08:06:47 51°16.258 2°56.082 256 14.8 253 8.8
2010-04-28 08:06:51 51°16.253 2°56.057 255.5 14.8 252 8.8
2010-04-28 08:06:56 51°16.247 2°56.026 254.9 14.8 252 8.7
2010-04-28 08:07:01 51°16.241 2°55.995 254.6 14.8 252 8.8
2010-04-28 08:07:06 51°16.234 2°55.964 254.4 14.8 252 8.8
2010-04-28 08:07:11 51°16.228 2°55.933 254.2 14.9 252 8.8
2010-04-28 08:07:16 51°16.222 2°55.901 254.7 14.9 252 8.8
2010-04-28 08:07:22 51°16.214 2°55.863 254.8 14.9 253 8.9
2010-04-28 08:07:27 51°16.209 2°55.832 254.8 14.9 254 8.9
2010-04-28 08:07:31 51°16.204 2°55.806 256.2 14.9 255 8.9
2010-04-28 08:07:36 51°16.199 2°55.775 257.3 14.9 255 9.1
2010-04-28 08:07:41 51°16.194 2°55.743 258.1 14.9 256 9
2010-04-28 08:07:47 51°16.188 2°55.704 258.7 14.9 256 9
2010-04-28 08:07:51 51°16.184 2°55.679 259.1 14.9 257 9.1
2010-04-28 08:07:56 51°16.179 2°55.646 259.6 14.9 257 9.2
2010-04-28 08:08:02 51°16.174 2°55.608 260.1 14.9 258 9.2
2010-04-28 08:08:07 51°16.171 2°55.575 261.8 14.9 260 9.1
2010-04-28 08:08:11 51°16.168 2°55.549 262.8 14.9 259 9.2
2010-04-28 08:08:16 51°16.164 2°55.517 263.2 14.9 262 9.2
2010-04-28 08:08:22 51°16.16 2°55.478 264.1 14.9 260 9.1
2010-04-28 08:08:27 51°16.157 2°55.445 264.4 14.9 262 9.1
2010-04-28 08:08:31 51°16.155 2°55.419 264.7 14.9 261 9.2
2010-04-28 08:08:36 51°16.152 2°55.386 264.9 14.9 261 9.3
2010-04-28 08:08:41 51°16.148 2°55.354 264.9 14.9 261 9.3
2010-04-28 08:08:47 51°16.144 2°55.315 264.1 14.9 260 9.3
2010-04-28 08:08:51 51°16.141 2°55.289 263.6 15 260 9.3
2010-04-28 08:08:56 51°16.137 2°55.256 263.5 15 259 9.3
2010-04-28 08:09:01 51°16.134 2°55.223 263.1 15 260 9.4
2010-04-28 08:09:07 51°16.129 2°55.184 263.1 15 259 9.4
2010-04-28 08:09:11 51°16.126 2°55.158 263 15 260 9.4
2010-04-28 08:09:16 51°16.122 2°55.126 262.8 15 259 9.4
2010-04-28 08:09:21 51°16.119 2°55.093 262.8 15 260 9.4
2010-04-28 08:09:27 51°16.114 2°55.054 263 15 261 9.4
2010-04-28 08:09:31 51°16.111 2°55.028 263.4 15 260 9.5
2010-04-28 08:09:36 51°16.108 2°54.995 263.8 15 261 9.6
2010-04-28 08:09:41 51°16.105 2°54.962 264.5 15 261 9.5
2010-04-28 08:09:47 51°16.101 2°54.923 264.6 15 261 9.6
2010-04-28 08:09:51 51°16.098 2°54.897 264.4 15 261 9.6
2010-04-28 08:09:56 51°16.095 2°54.864 264.5 15 261 9.6
2010-04-28 08:10:02 51°16.091 2°54.824 264.7 15 261 9.6
2010-04-28 08:10:07 51°16.088 2°54.792 264.3 15 261 9.7
2010-04-28 08:10:11 51°16.085 2°54.765 264.2 15 261 9.7
2010-04-28 08:10:16 51°16.082 2°54.732 264.5 15 262 9.7
2010-04-28 08:10:22 51°16.079 2°54.693 264.9 15 262 9.7
2010-04-28 08:10:27 51°16.076 2°54.66 265.4 15 262 9.7
2010-04-28 08:10:31 51°16.074 2°54.634 265.9 15 263 9.8
2010-04-28 08:10:36 51°16.071 2°54.601 266.4 15 263 9.7
2010-04-28 08:10:41 51°16.069 2°54.568 266.5 15 263 9.8
2010-04-28 08:10:47 51°16.065 2°54.528 266.5 15.1 262 9.9
2010-04-28 08:10:51 51°16.063 2°54.502 266.2 15.1 262 9.9
2010-04-28 08:10:56 51°16.06 2°54.469 265.7 15.1 262 9.9
2010-04-28 08:11:01 51°16.057 2°54.436 265 15.1 261 10
2010-04-28 08:11:06 51°16.054 2°54.403 265 15.1 262 10.1
2010-04-28 08:11:11 51°16.05 2°54.37 265 15.1 261 10.2
2010-04-28 08:11:16 51°16.047 2°54.337 264.9 15.1 262 10.2
2010-04-28 08:11:21 51°16.044 2°54.304 265 15.1 261 10.2
2010-04-28 08:11:26 51°16.041 2°54.271 265 15.1 261 10.2
2010-04-28 08:11:31 51°16.038 2°54.238 264.7 15.1 261 10.2
2010-04-28 08:11:36 51°16.035 2°54.205 264.7 15.1 261 10.2
2010-04-28 08:11:41 51°16.032 2°54.171 264.9 15.2 261 10.2
2010-04-28 08:11:47 51°16.028 2°54.132 265 15.2 261 10.2
2010-04-28 08:11:51 51°16.025 2°54.105 264.8 15.2 261 10.2
2010-04-28 08:11:56 51°16.022 2°54.072 264.7 15.1 261 10.2
2010-04-28 08:12:02 51°16.018 2°54.032 264.7 15.2 261 10.2
2010-04-28 08:12:06 51°16.016 2°54.006 264.7 15.2 261 10.2
2010-04-28 08:12:11 51°16.012 2°53.973 264.7 15.2 261 10.3
2010-04-28 08:12:16 51°16.009 2°53.94 264.6 15.2 260 10.4
2010-04-28 08:12:22 51°16.005 2°53.9 264.3 15.2 261 10.4
2010-04-28 08:12:27 51°16.001 2°53.867 264.3 15.2 261 10.4
2010-04-28 08:12:31 51°15.998 2°53.84 264.4 15.2 261 10.5
2010-04-28 08:12:36 51°15.995 2°53.807 264.4 15.2 261 10.6
2010-04-28 08:12:42 51°15.991 2°53.767 264.5 15.1 261 10.5
2010-04-28 08:12:46 51°15.989 2°53.741 264.6 15.1 261 10.5
2010-04-28 08:12:51 51°15.985 2°53.708 264.6 15.1 261 10.5
2010-04-28 08:12:56 51°15.982 2°53.675 264.4 15.1 261 10.6
2010-04-28 08:13:02 51°15.978 2°53.635 264.3 15.1 261 10.6
2010-04-28 08:13:07 51°15.975 2°53.602 264.2 15.2 261 10.7
2010-04-28 08:13:11 51°15.972 2°53.576 263.6 15.2 259 10.7
2010-04-28 08:13:16 51°15.968 2°53.543 262.8 15.1 260 10.6
2010-04-28 08:13:21 51°15.963 2°53.51 262.1 15.1 258 10.7
2010-04-28 08:13:27 51°15.958 2°53.471 261.2 15.1 258 10.8
2010-04-28 08:13:31 51°15.954 2°53.445 260.8 15.2 257 10.8
2010-04-28 08:13:36 51°15.95 2°53.412 260.2 15.1 257 10.7
2010-04-28 08:13:41 51°15.945 2°53.379 259.9 15.1 257 10.8
2010-04-28 08:13:47 51°15.939 2°53.34 259.9 15.1 257 10.9
2010-04-28 08:13:51 51°15.935 2°53.314 259.8 15.1 256 11
2010-04-28 08:13:56 51°15.93 2°53.282 258.8 15.1 255 10.9
2010-04-28 08:14:02 51°15.924 2°53.243 258.5 15 256 10.9
2010-04-28 08:14:06 51°15.919 2°53.218 258.3 15.1 254 10.9
2010-04-28 08:14:11 51°15.914 2°53.186 257.7 15 257 10.8
2010-04-28 08:14:16 51°15.909 2°53.154 258.1 15 254 10.9
2010-04-28 08:14:22 51°15.903 2°53.115 257.9 15 256 10.9
2010-04-28 08:14:27 51°15.898 2°53.082 258.2 15 255 10.8
2010-04-28 08:14:31 51°15.894 2°53.057 258 15 256 10.8
2010-04-28 08:14:36 51°15.888 2°53.025 258.2 15 255 10.9
2010-04-28 08:14:41 51°15.883 2°52.993 257.9 15 255 10.9
2010-04-28 08:14:47 51°15.877 2°52.954 257.8 15 256 11
2010-04-28 08:14:51 51°15.872 2°52.929 258 15 255 11
2010-04-28 08:14:56 51°15.868 2°52.896 258 14.9 256 11
2010-04-28 08:15:02 51°15.861 2°52.858 258.1 15 255 11
2010-04-28 08:15:07 51°15.856 2°52.826 258 15 255 11
2010-04-28 08:15:11 51°15.852 2°52.8 257.8 15 255 11
2010-04-28 08:15:16 51°15.847 2°52.768 257.8 15 255 11.1
2010-04-28 08:15:21 51°15.841 2°52.736 258.1 15 257 11.1
2010-04-28 08:15:27 51°15.835 2°52.697 258.5 15 256 11.1
2010-04-28 08:15:31 51°15.831 2°52.671 258.4 15 256 11
2010-04-28 08:15:36 51°15.826 2°52.639 258.3 15 255 11.1
2010-04-28 08:15:41 51°15.821 2°52.607 258.4 15 256 11.2
2010-04-28 08:15:47 51°15.815 2°52.568 258.5 15 256 11.2
2010-04-28 08:15:51 51°15.811 2°52.543 258.4 15 256 11.2
2010-04-28 08:15:56 51°15.806 2°52.51 258.2 15 256 11.2
2010-04-28 08:16:01 51°15.801 2°52.478 258 15 255 11.2
2010-04-28 08:16:06 51°15.795 2°52.446 257.8 15 255 11.2
2010-04-28 08:16:11 51°15.79 2°52.414 257.7 15 256 11.4
2010-04-28 08:16:16 51°15.785 2°52.382 257.9 15 255 11.3
2010-04-28 08:16:22 51°15.779 2°52.343 257.9 15 256 11.3
2010-04-28 08:16:27 51°15.773 2°52.311 257.8 15 255 11.4
2010-04-28 08:16:31 51°15.769 2°52.286 257.8 15 256 11.4
2010-04-28 08:16:36 51°15.764 2°52.253 258.4 15 256 11.5
2010-04-28 08:16:41 51°15.759 2°52.221 258.3 15 256 11.5
2010-04-28 08:16:47 51°15.753 2°52.183 258.3 15 256 11.5
2010-04-28 08:16:51 51°15.748 2°52.157 258.3 15 255 11.6
2010-04-28 08:16:56 51°15.744 2°52.125 258.1 15 256 11.5
2010-04-28 08:17:02 51°15.737 2°52.087 258.1 15 255 11.6
2010-04-28 08:17:07 51°15.732 2°52.055 257.9 15 256 11.6
2010-04-28 08:17:11 51°15.728 2°52.029 257.9 15 255 11.7
2010-04-28 08:17:16 51°15.723 2°51.997 257.9 15 256 11.6
2010-04-28 08:17:22 51°15.716 2°51.959 257.9 15 255 11.6
2010-04-28 08:17:27 51°15.711 2°51.927 257.8 15 256 11.7
2010-04-28 08:17:31 51°15.707 2°51.901 257.7 15 255 11.7
2010-04-28 08:17:36 51°15.702 2°51.869 257.8 14.9 256 11.7
2010-04-28 08:17:41 51°15.697 2°51.837 258.1 14.9 256 11.7
2010-04-28 08:17:47 51°15.691 2°51.799 258.3 14.9 256 11.8
2010-04-28 08:17:51 51°15.687 2°51.773 258.5 14.9 256 11.8
2010-04-28 08:17:56 51°15.682 2°51.741 258.9 15 257 11.8
2010-04-28 08:18:01 51°15.677 2°51.709 259.2 14.9 257 11.9
2010-04-28 08:18:06 51°15.673 2°51.677 259.3 14.9 257 11.8
2010-04-28 08:18:11 51°15.668 2°51.645 259.6 14.9 257 11.9
2010-04-28 08:18:16 51°15.663 2°51.612 259.6 14.9 257 11.8
2010-04-28 08:18:21 51°15.658 2°51.581 259.1 14.9 256 12
2010-04-28 08:18:27 51°15.652 2°51.543 258.7 14.9 255 11.8
2010-04-28 08:18:31 51°15.647 2°51.518 257.8 14.8 252 11.9
2010-04-28 08:18:36 51°15.639 2°51.487 253.9 14.7 246 11.9
2010-04-28 08:18:41 51°15.629 2°51.459 247.7 14.6 239 11.9
2010-04-28 08:18:47 51°15.614 2°51.428 239.9 14.7 233 12
2010-04-28 08:18:51 51°15.603 2°51.409 233.1 14.7 230 12.1
2010-04-28 08:18:56 51°15.591 2°51.383 230.8 14.7 230 12
2010-04-28 08:19:02 51°15.576 2°51.353 230.2 14.8 232 12
2010-04-28 08:19:07 51°15.564 2°51.326 231.8 14.9 234 12
2010-04-28 08:19:11 51°15.554 2°51.305 234.5 14.9 236 12
2010-04-28 08:19:16 51°15.543 2°51.277 236.1 14.9 236 12
2010-04-28 08:19:22 51°15.529 2°51.244 236.8 14.9 236 12
2010-04-28 08:19:27 51°15.517 2°51.217 236.9 15 236 12.1
2010-04-28 08:19:31 51°15.508 2°51.195 236.7 15 237 12